Time;durP1;ratioP1;P1;durP2;ratioP2;P2;SDS_P1;SDS_P2;PMS_P1;PMS_P2;Temp;Humidity;BMP_temperature;BMP_pressure;BME280_temperature;BME280_humidity;BME280_pressure;Samples;Min_cycle;Max_cycle;Signal;HPM_P1;HPM_P2
2023/01/07 00:01:38;;;;;;;31.17;14.32;;;8.60;99.90;;;;;;4895743;29;20049;-86
2023/01/07 00:04:07;;;;;;;32.13;13.82;;;8.70;99.90;;;;;;4908817;29;20040;-86
2023/01/07 00:06:35;;;;;;;40.78;15.95;;;8.80;99.90;;;;;;4884642;29;20055;-86
2023/01/07 00:09:02;;;;;;;38.88;16.48;;;8.70;99.90;;;;;;4893672;29;20125;-85
2023/01/07 00:11:30;;;;;;;45.80;17.83;;;8.80;99.90;;;;;;4907134;29;20036;-85
2023/01/07 00:13:58;;;;;;;42.97;18.23;;;8.80;99.90;;;;;;4891625;29;20036;-85
2023/01/07 00:16:26;;;;;;;49.30;17.88;;;8.80;99.90;;;;;;4881695;29;20198;-85
2023/01/07 00:18:53;;;;;;;49.15;17.58;;;8.90;99.90;;;;;;4898164;29;20568;-85
2023/01/07 00:21:20;;;;;;;44.53;18.80;;;8.90;99.90;;;;;;4882966;29;20745;-84
2023/01/07 00:23:47;;;;;;;40.88;17.38;;;8.90;99.90;;;;;;4886210;29;20392;-85
2023/01/07 00:26:18;;;;;;;35.55;15.63;;;9.00;99.90;;;;;;4886332;29;20096;-85
2023/01/07 00:28:45;;;;;;;37.90;16.83;;;9.10;99.90;;;;;;4891258;29;20385;-85
2023/01/07 00:31:17;;;;;;;35.03;14.98;;;8.60;99.90;;;;;;4891436;29;20047;-85
2023/01/07 00:34:28;;;;;;;38.90;15.98;;;9.30;99.90;;;;;;4910914;29;20046;-85
2023/01/07 00:36:31;;;;;;;36.47;15.68;;;9.40;99.90;;;;;;4888096;29;20047;-85
2023/01/07 00:39:00;;;;;;;29.08;12.93;;;9.50;99.90;;;;;;4910647;29;20044;-85
2023/01/07 00:41:26;;;;;;;39.58;16.63;;;9.50;99.90;;;;;;4900433;29;20032;-85
2023/01/07 00:43:52;;;;;;;31.35;13.95;;;9.50;99.90;;;;;;4895520;29;20048;-84
2023/01/07 00:46:18;;;;;;;41.70;17.35;;;9.60;99.90;;;;;;4868868;29;20043;-85
2023/01/07 00:48:44;;;;;;;34.83;14.65;;;9.50;99.90;;;;;;4872031;29;20040;-84
2023/01/07 00:51:11;;;;;;;35.67;14.60;;;9.60;99.90;;;;;;4881956;29;20036;-85
2023/01/07 00:53:37;;;;;;;29.52;12.88;;;9.50;99.90;;;;;;4880069;29;20299;-84
2023/01/07 00:56:03;;;;;;;34.40;14.50;;;9.60;99.90;;;;;;4909112;29;20389;-84
2023/01/07 00:58:30;;;;;;;33.47;13.65;;;9.60;99.90;;;;;;4888742;29;20048;-84
2023/01/07 01:00:58;;;;;;;30.63;13.50;;;9.60;99.90;;;;;;4904499;29;20043;-84
2023/01/07 01:03:24;;;;;;;35.53;15.10;;;9.60;99.90;;;;;;4893513;29;20127;-84
2023/01/07 01:05:51;;;;;;;33.60;14.00;;;9.60;99.90;;;;;;4897943;29;20108;-84
2023/01/07 01:08:17;;;;;;;32.35;13.82;;;9.60;99.90;;;;;;4891659;29;20044;-84
2023/01/07 01:10:44;;;;;;;36.63;14.77;;;9.60;99.90;;;;;;4881185;29;20040;-85
2023/01/07 01:13:12;;;;;;;39.08;15.25;;;9.60;99.90;;;;;;4896819;29;20082;-85
2023/01/07 01:15:44;;;;;;;34.80;14.27;;;9.60;99.90;;;;;;4891538;29;20098;-84
2023/01/07 01:18:10;;;;;;;29.55;13.80;;;9.60;99.90;;;;;;4884355;29;20028;-84
2023/01/07 01:20:36;;;;;;;29.15;12.40;;;9.70;99.90;;;;;;4896205;29;20056;-84
2023/01/07 01:23:03;;;;;;;35.45;14.27;;;9.70;99.90;;;;;;4886966;29;20043;-84
2023/01/07 01:25:28;;;;;;;26.30;11.85;;;9.70;99.90;;;;;;4875914;29;20044;-84
2023/01/07 01:27:54;;;;;;;31.23;13.35;;;9.80;99.90;;;;;;4888946;29;20054;-84
2023/01/07 01:30:20;;;;;;;33.42;14.68;;;9.80;99.90;;;;;;4870615;29;20413;-84
2023/01/07 01:32:46;;;;;;;31.20;14.27;;;9.80;99.90;;;;;;4912894;29;20050;-84
2023/01/07 01:35:12;;;;;;;;;;;9.80;99.90;;;;;;4901787;29;20066;-84
2023/01/07 01:37:37;;;;;;;31.02;13.93;;;9.90;99.90;;;;;;4895024;29;19922;-84
2023/01/07 01:40:05;;;;;;;28.75;12.73;;;9.90;99.90;;;;;;4871639;29;20052;-84
2023/01/07 01:42:31;;;;;;;27.73;13.32;;;9.90;99.90;;;;;;4889641;29;20040;-84
2023/01/07 01:44:59;;;;;;;25.35;11.30;;;10.00;99.90;;;;;;4899126;29;20064;-84
2023/01/07 01:47:43;;;;;;;26.98;11.90;;;10.00;99.90;;;;;;4892187;29;20044;-84
2023/01/07 01:50:31;;;;;;;18.80;9.60;;;10.10;99.90;;;;;;4892467;29;20516;-84
2023/01/07 01:53:03;;;;;;;24.65;12.23;;;10.20;99.90;;;;;;4894457;29;20043;-84
2023/01/07 01:55:36;;;;;;;19.38;9.88;;;10.20;99.90;;;;;;4889230;29;20046;-85
2023/01/07 01:58:08;;;;;;;22.60;11.27;;;10.30;99.90;;;;;;4895274;29;20045;-85
2023/01/07 02:00:35;;;;;;;21.02;9.75;;;10.40;99.90;;;;;;4890072;29;20119;-84
2023/01/07 02:03:01;;;;;;;;;;;10.40;99.90;;;;;;4893065;29;20040;-84
2023/01/07 02:05:37;;;;;;;23.20;11.27;;;10.50;99.90;;;;;;4894789;29;19918;-84
2023/01/07 02:08:03;;;;;;;25.77;12.57;;;10.50;99.90;;;;;;4901470;29;20082;-84
2023/01/07 02:10:31;;;;;;;24.55;12.02;;;10.50;99.90;;;;;;4869984;29;20071;-85
2023/01/07 02:13:28;;;;;;;22.85;11.02;;;10.50;99.90;;;;;;4900024;29;20071;-85
2023/01/07 02:16:16;;;;;;;21.80;11.50;;;10.50;99.90;;;;;;4896956;29;20035;-84
2023/01/07 02:19:16;;;;;;;22.50;11.82;;;10.50;99.90;;;;;;4910539;29;20405;-85
2023/01/07 02:21:50;;;;;;;22.05;11.93;;;10.50;99.90;;;;;;4895339;29;20094;-85
2023/01/07 02:24:43;;;;;;;23.83;12.23;;;10.60;99.90;;;;;;4913147;29;20040;-84
2023/01/07 02:27:44;;;;;;;23.65;11.80;;;10.60;99.90;;;;;;4894496;29;20039;-84
2023/01/07 02:30:13;;;;;;;25.45;12.55;;;10.60;99.90;;;;;;4878859;29;20051;-84
2023/01/07 02:33:04;;;;;;;25.35;12.80;;;10.60;99.90;;;;;;4908494;29;20067;-85
2023/01/07 02:35:56;;;;;;;23.50;13.00;;;10.50;99.90;;;;;;4896912;29;20754;-85
2023/01/07 02:38:56;;;;;;;24.85;14.10;;;10.60;99.90;;;;;;4896400;29;20051;-85
2023/01/07 02:41:47;;;;;;;24.92;13.77;;;10.50;99.90;;;;;;4892038;29;20036;-85
2023/01/07 02:44:24;;;;;;;21.90;12.68;;;10.60;99.90;;;;;;4896333;29;20040;-84
2023/01/07 02:47:00;;;;;;;23.27;12.77;;;10.70;99.90;;;;;;4898700;29;20055;-85
2023/01/07 02:49:25;;;;;;;20.85;11.95;;;10.70;99.90;;;;;;4892397;29;20043;-85
2023/01/07 02:51:51;;;;;;;23.55;13.68;;;10.70;99.90;;;;;;4884526;29;20044;-85
2023/01/07 02:54:28;;;;;;;24.50;13.40;;;10.70;99.90;;;;;;4891095;29;20040;-85
2023/01/07 02:57:42;;;;;;;24.33;12.88;;;10.70;99.90;;;;;;4900770;29;20043;-85
2023/01/07 03:00:17;;;;;;;21.13;12.52;;;10.70;99.90;;;;;;4899584;29;20050;-84
2023/01/07 03:02:51;;;;;;;23.20;12.35;;;10.70;99.90;;;;;;4886569;29;20893;-84
2023/01/07 03:05:39;;;;;;;22.98;14.00;;;10.80;99.90;;;;;;4906612;29;20099;-85
2023/01/07 03:08:13;;;;;;;;;;;10.70;99.90;;;;;;4891903;29;20495;-85
2023/01/07 03:10:44;;;;;;;19.90;11.52;;;10.80;99.90;;;;;;4902731;29;19926;-85
2023/01/07 03:13:19;;;;;;;21.38;12.30;;;10.80;99.90;;;;;;4897533;29;20047;-85
2023/01/07 03:16:17;;;;;;;21.77;12.73;;;10.80;99.90;;;;;;4906119;29;20511;-85
2023/01/07 03:18:50;;;;;;;23.10;12.65;;;10.80;99.90;;;;;;4888221;29;20074;-85
2023/01/07 03:21:18;;;;;;;24.88;14.02;;;10.70;99.90;;;;;;4897031;29;20055;-85
2023/01/07 03:23:50;;;;;;;20.13;11.88;;;10.80;99.90;;;;;;4907374;29;20452;-85
2023/01/07 03:26:21;;;;;;;20.40;13.23;;;10.70;99.90;;;;;;4891359;29;20103;-85
2023/01/07 03:28:49;;;;;;;25.85;13.73;;;10.80;99.90;;;;;;4891082;29;20084;-85
2023/01/07 03:31:16;;;;;;;22.02;13.60;;;10.70;99.90;;;;;;4894294;29;20048;-85
2023/01/07 03:33:51;;;;;;;21.05;13.32;;;10.70;99.90;;;;;;4894285;29;20537;-85
2023/01/07 03:36:21;;;;;;;25.33;13.73;;;10.70;99.90;;;;;;4899181;29;20044;-85
2023/01/07 03:38:49;;;;;;;25.60;15.30;;;10.90;99.90;;;;;;4895720;29;20043;-85
2023/01/07 03:42:38;;;;;;;20.25;11.80;;;10.80;99.90;;;;;;4895131;29;20039;-85
2023/01/07 03:44:00;;;;;;;19.85;13.30;;;10.90;99.90;;;;;;4902523;29;20094;-85
2023/01/07 03:46:26;;;;;;;21.15;12.73;;;10.80;99.90;;;;;;4870577;29;20032;-85
2023/01/07 03:48:52;;;;;;;20.00;13.18;;;10.80;99.90;;;;;;4883604;29;20039;-84
2023/01/07 03:51:18;;;;;;;19.75;11.73;;;10.90;99.90;;;;;;4880979;29;20046;-84
2023/01/07 03:53:44;;;;;;;22.63;12.25;;;10.80;99.90;;;;;;4867750;29;20067;-85
2023/01/07 03:56:09;;;;;;;17.65;11.80;;;10.80;99.90;;;;;;4891631;29;20036;-85
2023/01/07 03:58:35;;;;;;;19.60;10.23;;;10.90;99.90;;;;;;4866979;29;20044;-84
2023/01/07 04:01:01;;;;;;;19.60;12.03;;;10.80;99.90;;;;;;4867386;29;20036;-84
2023/01/07 04:03:26;;;;;;;17.15;10.45;;;10.80;99.90;;;;;;4867886;29;20288;-84
2023/01/07 04:05:52;;;;;;;18.53;10.80;;;10.90;99.90;;;;;;4890112;29;20512;-84
2023/01/07 04:08:18;;;;;;;19.37;11.70;;;11.80;99.90;;;;;;4882238;29;20653;-84
2023/01/07 04:10:43;;;;;;;17.17;10.77;;;10.90;99.90;;;;;;4884497;29;20480;-84
2023/01/07 04:13:09;;;;;;;22.40;12.32;;;10.90;99.90;;;;;;4867502;29;20036;-85
2023/01/07 04:15:34;;;;;;;18.38;12.13;;;11.00;99.90;;;;;;4894773;29;20086;-85
2023/01/07 04:18:00;;;;;;;17.33;10.07;;;10.90;99.90;;;;;;4871174;29;20047;-84
2023/01/07 04:20:26;;;;;;;17.43;10.47;;;10.90;99.90;;;;;;4888545;29;20366;-84
2023/01/07 04:22:51;;;;;;;18.13;11.32;;;10.80;99.90;;;;;;4881209;29;20292;-84
2023/01/07 04:25:17;;;;;;;16.90;10.93;;;10.90;99.90;;;;;;4889690;29;20039;-85
2023/01/07 04:27:43;;;;;;;15.18;10.30;;;10.90;99.90;;;;;;4866309;29;20051;-84
2023/01/07 04:30:09;;;;;;;16.60;9.95;;;10.90;99.90;;;;;;4881757;29;20040;-84
2023/01/07 04:32:35;;;;;;;15.80;10.73;;;11.00;99.90;;;;;;4891911;29;20113;-84
2023/01/07 04:35:00;;;;;;;18.38;11.55;;;10.90;99.90;;;;;;4894761;29;20047;-85
2023/01/07 04:37:26;;;;;;;19.77;11.55;;;10.90;99.90;;;;;;4871640;29;20127;-85
2023/01/07 04:39:52;;;;;;;14.63;10.13;;;10.90;99.90;;;;;;4883256;29;20184;-85
2023/01/07 04:42:17;;;;;;;21.23;10.68;;;10.80;99.90;;;;;;4888502;29;20284;-84
2023/01/07 04:44:43;;;;;;;18.88;12.45;;;10.90;99.90;;;;;;4883462;29;20043;-85
2023/01/07 04:47:09;;;;;;;17.90;10.88;;;10.80;99.90;;;;;;4883110;29;20452;-85
2023/01/07 04:49:34;;;;;;;20.05;10.95;;;10.80;99.90;;;;;;4882568;29;20139;-85
2023/01/07 04:52:00;;;;;;;17.75;10.63;;;10.80;99.90;;;;;;4885549;29;20043;-85
2023/01/07 04:54:26;;;;;;;18.85;12.00;;;10.70;99.90;;;;;;4865873;29;20122;-85
2023/01/07 04:56:52;;;;;;;18.52;12.15;;;10.80;99.90;;;;;;4866606;29;20425;-85
2023/01/07 04:59:18;;;;;;;19.67;12.05;;;10.80;99.90;;;;;;4868109;29;20083;-85
2023/01/07 05:01:43;;;;;;;15.77;9.45;;;10.80;99.90;;;;;;4869025;29;20082;-85
2023/01/07 05:04:09;;;;;;;20.63;11.73;;;10.70;99.90;;;;;;4884079;29;20036;-85
2023/01/07 05:06:35;;;;;;;15.73;10.20;;;10.70;99.90;;;;;;4883337;29;20812;-85
2023/01/07 05:09:00;;;;;;;14.73;8.50;;;10.80;99.90;;;;;;4886489;29;20307;-85
2023/01/07 05:11:26;;;;;;;17.35;9.02;;;10.70;99.90;;;;;;4873274;29;20492;-85
2023/01/07 05:13:52;;;;;;;19.95;12.00;;;10.80;99.90;;;;;;4886091;29;20119;-85
2023/01/07 05:16:17;;;;;;;19.77;10.60;;;10.70;99.90;;;;;;4900697;29;20028;-85
2023/01/07 05:18:43;;;;;;;18.52;9.43;;;10.70;99.90;;;;;;4914792;29;20374;-85
2023/01/07 05:21:09;;;;;;;15.03;9.43;;;10.70;99.90;;;;;;4893718;29;20489;-85
2023/01/07 05:23:35;;;;;;;18.13;11.02;;;10.60;99.90;;;;;;4887010;29;20292;-85
2023/01/07 05:26:01;;;;;;;19.67;10.77;;;10.60;99.90;;;;;;4884382;29;20036;-85
2023/01/07 05:28:27;;;;;;;17.13;9.80;;;10.60;99.90;;;;;;4888619;29;20119;-85
2023/01/07 05:30:52;;;;;;;19.95;11.38;;;10.60;99.90;;;;;;4872446;29;20040;-85
2023/01/07 05:33:18;;;;;;;22.75;11.43;;;10.60;99.90;;;;;;4899251;29;20052;-85
2023/01/07 05:35:47;;;;;;;14.52;9.85;;;10.50;99.90;;;;;;4872576;29;20082;-85
2023/01/07 05:38:13;;;;;;;16.13;9.75;;;10.60;99.90;;;;;;4886200;29;20051;-85
2023/01/07 05:40:40;;;;;;;16.50;9.80;;;10.60;99.90;;;;;;4885270;29;20036;-86
2023/01/07 05:43:06;;;;;;;14.55;8.38;;;10.50;99.90;;;;;;4896312;29;20272;-86
2023/01/07 05:45:32;;;;;;;18.10;10.38;;;10.60;99.90;;;;;;4898095;29;20435;-86
2023/01/07 05:47:57;;;;;;;15.63;9.60;;;10.60;99.90;;;;;;4879858;29;20078;-85
2023/01/07 05:50:23;;;;;;;16.17;9.57;;;10.70;99.90;;;;;;4871057;29;20044;-85
2023/01/07 05:52:52;;;;;;;14.35;7.97;;;10.70;99.90;;;;;;4869900;29;20059;-85
2023/01/07 05:55:18;;;;;;;13.38;8.77;;;10.60;99.90;;;;;;4880571;29;20416;-85
2023/01/07 05:57:43;;;;;;;12.30;7.75;;;10.60;99.90;;;;;;4912173;29;20040;-86
2023/01/07 06:00:10;;;;;;;13.05;8.95;;;10.60;99.90;;;;;;4896543;29;20108;-86
2023/01/07 06:02:36;;;;;;;16.35;10.45;;;10.70;99.90;;;;;;4886092;29;20036;-85
2023/01/07 06:05:03;;;;;;;13.07;8.18;;;10.60;99.90;;;;;;4899960;29;20043;-86
2023/01/07 06:07:28;;;;;;;;;;;10.70;99.90;;;;;;4888279;29;20054;-86
2023/01/07 06:09:54;;;;;;;12.68;8.52;;;10.60;99.90;;;;;;4892189;29;19990;-85
2023/01/07 06:12:19;;;;;;;12.70;6.93;;;10.60;99.90;;;;;;4893172;29;20036;-85
2023/01/07 06:14:45;;;;;;;13.30;9.20;;;10.50;99.90;;;;;;4883241;29;20035;-86
2023/01/07 06:17:11;;;;;;;13.45;8.80;;;10.40;99.90;;;;;;4885510;29;20299;-86
2023/01/07 06:19:37;;;;;;;15.50;8.77;;;10.40;99.90;;;;;;4884240;29;20040;-85
2023/01/07 06:22:02;;;;;;;15.77;8.77;;;10.40;99.90;;;;;;4868708;29;20203;-85
2023/01/07 06:24:28;;;;;;;12.40;8.48;;;10.40;99.90;;;;;;4897136;29;20119;-85
2023/01/07 06:26:54;;;;;;;14.90;8.67;;;10.30;99.90;;;;;;4869542;29;20131;-85
2023/01/07 06:29:19;;;;;;;12.88;7.97;;;10.30;99.90;;;;;;4892520;29;20125;-85
2023/01/07 06:31:45;;;;;;;18.52;9.35;;;10.30;99.90;;;;;;4889029;29;20044;-84
2023/01/07 06:34:11;;;;;;;16.08;8.45;;;10.30;99.90;;;;;;4893843;29;20564;-85
2023/01/07 06:36:36;;;;;;;16.17;8.05;;;10.30;99.90;;;;;;4890652;29;20048;-85
2023/01/07 06:39:02;;;;;;;13.02;7.80;;;10.30;99.90;;;;;;4915308;29;20055;-85
2023/01/07 06:41:28;;;;;;;14.38;7.72;;;10.20;99.90;;;;;;4901916;29;20036;-85
2023/01/07 06:43:54;;;;;;;13.32;8.00;;;10.20;99.90;;;;;;4880292;29;20030;-85
2023/01/07 06:46:19;;;;;;;13.20;7.40;;;10.20;99.90;;;;;;4880806;29;20099;-85
2023/01/07 06:48:45;;;;;;;12.50;7.10;;;10.20;99.90;;;;;;4892072;29;20780;-85
2023/01/07 06:51:11;;;;;;;13.23;8.10;;;10.10;99.90;;;;;;4891150;29;20465;-85
2023/01/07 06:53:36;;;;;;;15.20;8.60;;;10.10;99.90;;;;;;4890017;29;20117;-85
2023/01/07 06:56:02;;;;;;;12.57;7.32;;;10.10;99.90;;;;;;4873136;29;20066;-85
2023/01/07 06:58:28;;;;;;;14.85;8.13;;;10.10;99.90;;;;;;4890376;29;20036;-85
2023/01/07 07:00:54;;;;;;;14.07;6.53;;;10.20;99.90;;;;;;4886012;29;20522;-85
2023/01/07 07:03:19;;;;;;;10.25;7.03;;;10.20;99.90;;;;;;4880138;29;20043;-84
2023/01/07 07:05:45;;;;;;;11.85;7.50;;;10.20;99.90;;;;;;4874987;29;20040;-85
2023/01/07 07:08:11;;;;;;;10.25;7.15;;;10.20;99.90;;;;;;4911524;29;20095;-86
2023/01/07 07:10:37;;;;;;;10.20;6.78;;;10.20;99.90;;;;;;4880675;29;20044;-86
2023/01/07 07:13:02;;;;;;;10.10;7.03;;;10.20;99.90;;;;;;4886037;29;20066;-87
2023/01/07 07:15:28;;;;;;;12.70;6.65;;;10.20;99.90;;;;;;4870126;29;20457;-85
2023/01/07 07:17:54;;;;;;;13.52;8.35;;;10.30;99.90;;;;;;4872545;29;20507;-86
2023/01/07 07:20:20;;;;;;;12.30;6.97;;;10.20;99.90;;;;;;4881392;29;20493;-85
2023/01/07 07:22:46;;;;;;;10.55;7.18;;;10.20;99.90;;;;;;4907443;29;20075;-85
2023/01/07 07:25:13;;;;;;;13.18;8.02;;;10.20;99.90;;;;;;4892069;29;20561;-85
2023/01/07 07:27:39;;;;;;;11.80;7.00;;;10.20;99.90;;;;;;4877465;29;20445;-85
2023/01/07 07:30:06;;;;;;;14.30;7.77;;;10.20;99.90;;;;;;4868810;29;20044;-85
2023/01/07 07:32:32;;;;;;;12.93;7.13;;;10.20;99.90;;;;;;4905942;29;20287;-85
2023/01/07 07:34:58;;;;;;;10.48;6.57;;;10.20;99.90;;;;;;4868659;29;20040;-84
2023/01/07 07:37:24;;;;;;;12.95;7.40;;;10.20;99.90;;;;;;4907344;29;20492;-86
2023/01/07 07:39:49;;;;;;;10.52;6.60;;;10.20;99.90;;;;;;4899844;29;20044;-87
2023/01/07 07:42:15;;;;;;;11.48;6.65;;;10.20;99.90;;;;;;4869164;29;20129;-86
2023/01/07 07:44:41;;;;;;;11.70;6.17;;;10.10;99.90;;;;;;4874268;29;20036;-86
2023/01/07 07:47:06;;;;;;;10.50;6.30;;;10.10;99.90;;;;;;4871575;29;20292;-86
2023/01/07 07:49:32;;;;;;;11.87;6.23;;;10.20;99.90;;;;;;4883483;29;20291;-87
2023/01/07 07:51:58;;;;;;;11.73;6.40;;;10.20;99.90;;;;;;4883774;29;20705;-86
2023/01/07 07:54:24;;;;;;;9.37;4.93;;;10.20;99.90;;;;;;4868298;29;20287;-86
2023/01/07 07:56:49;;;;;;;12.60;5.72;;;10.20;99.90;;;;;;4883427;29;20300;-86
2023/01/07 07:59:15;;;;;;;10.18;5.88;;;10.20;99.90;;;;;;4906715;29;20036;-86
2023/01/07 08:01:41;;;;;;;7.43;5.60;;;10.30;99.90;;;;;;4877859;29;20561;-86
2023/01/07 08:04:06;;;;;;;10.67;5.97;;;10.30;99.90;;;;;;4891331;29;20039;-86
2023/01/07 08:06:33;;;;;;;9.88;5.68;;;10.30;99.90;;;;;;4890215;29;20574;-85
2023/01/07 08:08:59;;;;;;;9.80;5.90;;;10.10;99.90;;;;;;4870620;29;20064;-83
2023/01/07 08:11:24;;;;;;;8.40;5.40;;;10.20;99.90;;;;;;4885536;29;20048;-84
2023/01/07 08:13:50;;;;;;;8.10;5.07;;;10.20;99.90;;;;;;4875175;29;20047;-84
2023/01/07 08:16:16;;;;;;;8.30;4.95;;;10.20;99.90;;;;;;4900383;29;20051;-84
2023/01/07 08:18:42;;;;;;;8.97;5.93;;;10.10;99.90;;;;;;4865485;29;20047;-84
2023/01/07 08:21:07;;;;;;;10.93;4.78;;;10.10;99.90;;;;;;4884838;29;20308;-85
2023/01/07 08:23:33;;;;;;;7.47;5.20;;;10.10;99.90;;;;;;4882527;29;20521;-84
2023/01/07 08:26:01;;;;;;;6.93;4.53;;;10.10;99.90;;;;;;4880854;29;20040;-84
2023/01/07 08:28:28;;;;;;;7.70;4.80;;;10.20;99.90;;;;;;4868732;29;20032;-84
2023/01/07 08:30:54;;;;;;;8.50;5.05;;;10.10;99.90;;;;;;4868679;29;20092;-84
2023/01/07 08:33:19;;;;;;;7.13;4.35;;;10.10;99.90;;;;;;4857514;29;20517;-84
2023/01/07 08:35:45;;;;;;;7.25;4.43;;;10.10;99.90;;;;;;4870853;29;20043;-84
2023/01/07 08:38:11;;;;;;;5.22;3.42;;;10.20;99.90;;;;;;4871823;29;20052;-85
2023/01/07 08:40:37;;;;;;;7.22;4.85;;;10.10;99.90;;;;;;4860977;29;20511;-86
2023/01/07 08:43:04;;;;;;;6.95;4.68;;;10.10;99.90;;;;;;4868998;29;20457;-85
2023/01/07 08:45:31;;;;;;;6.38;4.25;;;10.10;99.90;;;;;;4879841;29;20033;-84
2023/01/07 08:47:57;;;;;;;;;;;10.10;99.90;;;;;;4890924;29;20104;-84
2023/01/07 08:50:24;;;;;;;8.93;4.20;;;10.10;99.90;;;;;;4879168;29;19924;-85
2023/01/07 08:52:50;;;;;;;7.03;3.88;;;10.10;99.90;;;;;;4889909;29;20052;-82
2023/01/07 08:55:16;;;;;;;10.23;4.53;;;10.10;99.90;;;;;;4881624;29;20396;-83
2023/01/07 08:57:42;;;;;;;6.35;3.83;;;10.20;99.90;;;;;;4890018;29;20041;-84
2023/01/07 09:00:08;;;;;;;7.80;3.05;;;10.30;99.90;;;;;;4866875;29;20568;-84
2023/01/07 09:02:34;;;;;;;6.82;4.03;;;10.50;99.90;;;;;;4888429;29;20040;-84
2023/01/07 09:05:00;;;;;;;6.60;4.57;;;10.60;99.90;;;;;;4874480;29;20086;-84
2023/01/07 09:07:25;;;;;;;5.13;3.38;;;10.60;99.90;;;;;;4860460;29;20054;-85
2023/01/07 09:09:51;;;;;;;5.13;3.13;;;10.60;99.90;;;;;;4870054;29;20036;-84
2023/01/07 09:12:17;;;;;;;5.97;3.97;;;10.70;99.90;;;;;;4877631;29;20054;-84
2023/01/07 09:14:42;;;;;;;4.20;2.80;;;10.70;99.90;;;;;;4871638;29;20407;-84
2023/01/07 09:17:08;;;;;;;5.90;3.17;;;10.60;99.90;;;;;;4887849;29;20052;-81
2023/01/07 09:19:34;;;;;;;6.22;3.05;;;10.60;99.90;;;;;;4885559;29;20021;-85
2023/01/07 09:22:00;;;;;;;6.83;3.00;;;10.70;99.90;;;;;;4893985;29;20478;-84
2023/01/07 09:24:25;;;;;;;5.65;3.20;;;10.80;99.90;;;;;;4862967;29;20337;-85
2023/01/07 09:26:51;;;;;;;6.05;3.50;;;10.90;99.90;;;;;;4869238;29;20068;-85
2023/01/07 09:29:17;;;;;;;5.43;3.38;;;10.90;99.90;;;;;;4882436;29;20048;-86
2023/01/07 09:31:43;;;;;;;6.00;3.30;;;11.00;99.90;;;;;;4866204;29;20048;-87
2023/01/07 09:34:08;;;;;;;4.75;3.28;;;11.00;99.90;;;;;;4871813;29;20047;-84
2023/01/07 09:36:34;;;;;;;4.50;2.70;;;11.10;99.90;;;;;;4885417;29;20120;-85
2023/01/07 09:39:00;;;;;;;5.27;3.30;;;11.10;99.90;;;;;;4894383;29;20291;-84
2023/01/07 09:41:31;;;;;;;6.07;2.97;;;11.10;99.90;;;;;;4901586;29;20324;-86
2023/01/07 09:44:25;;;;;;;4.85;3.15;;;11.10;99.90;;;;;;4903180;29;20042;-85
2023/01/07 09:46:54;;;;;;;4.85;2.65;;;11.10;99.90;;;;;;4898209;29;20052;-85
2023/01/07 09:49:24;;;;;;;5.10;3.05;;;11.10;99.90;;;;;;4879427;29;20103;-85
2023/01/07 09:51:57;;;;;;;5.13;2.97;;;11.10;99.90;;;;;;4891534;29;20051;-85
2023/01/07 09:54:31;;;;;;;5.15;2.53;;;11.10;99.90;;;;;;4909719;29;20049;-85
2023/01/07 09:56:57;;;;;;;4.60;2.75;;;11.20;99.90;;;;;;4896340;29;20521;-86
2023/01/07 09:59:23;;;;;;;3.67;2.83;;;11.20;99.90;;;;;;4873544;29;20044;-84
2023/01/07 10:01:54;;;;;;;5.15;2.47;;;11.30;99.90;;;;;;4911816;29;20036;-84
2023/01/07 10:04:23;;;;;;;5.07;2.72;;;11.40;99.90;;;;;;4895376;29;20127;-84
2023/01/07 10:07:00;;;;;;;3.70;1.95;;;11.50;99.90;;;;;;4909408;29;20694;-84
2023/01/07 10:09:54;;;;;;;6.40;2.55;;;11.60;99.90;;;;;;4896505;29;20135;-85
2023/01/07 10:12:32;;;;;;;4.20;2.50;;;11.50;99.90;;;;;;4888937;29;20103;-85
2023/01/07 10:15:37;;;;;;;3.92;2.28;;;11.40;99.90;;;;;;4908275;29;20052;-85
2023/01/07 10:18:11;;;;;;;3.85;1.95;;;11.30;99.90;;;;;;4872384;29;20056;-85
2023/01/07 10:21:25;;;;;;;3.53;2.25;;;11.30;99.90;;;;;;4902915;29;20060;-85
2023/01/07 10:23:58;;;;;;;3.65;2.20;;;11.40;99.90;;;;;;4874342;29;20152;-86
2023/01/07 10:26:35;;;;;;;3.55;2.13;;;11.80;99.90;;;;;;4910368;29;20040;-85
2023/01/07 10:29:07;;;;;;;4.88;2.22;;;12.20;99.90;;;;;;4903472;29;20036;-85
2023/01/07 10:31:33;;;;;;;3.20;2.10;;;12.00;99.90;;;;;;4882496;29;20127;-86
2023/01/07 10:33:59;;;;;;;4.00;2.20;;;11.80;99.90;;;;;;4904364;29;20469;-84
2023/01/07 10:36:24;;;;;;;4.18;2.50;;;11.60;99.90;;;;;;4901209;29;20047;-84
2023/01/07 10:39:08;;;;;;;2.85;2.15;;;11.40;99.90;;;;;;4906115;29;20083;-85
2023/01/07 10:41:58;;;;;;;6.43;2.20;;;11.30;99.90;;;;;;4884478;29;20040;-87
2023/01/07 10:44:43;;;;;;;5.03;2.53;;;11.20;99.90;;;;;;4886021;29;20127;-87
2023/01/07 10:47:24;;;;;;;3.40;1.80;;;11.20;99.90;;;;;;4908591;29;20051;-88
2023/01/07 10:50:01;;;;;;;2.92;2.22;;;10.90;99.90;;;;;;4905927;29;20123;-88
2023/01/07 10:52:44;;;;;;;3.00;1.92;;;11.00;99.90;;;;;;4909644;29;20142;-88
2023/01/07 10:55:43;;;;;;;2.97;2.13;;;11.10;99.90;;;;;;4908712;29;20048;-87
2023/01/07 10:58:10;;;;;;;2.78;1.77;;;11.20;99.90;;;;;;4909376;29;20063;-87
2023/01/07 11:00:40;;;;;;;4.25;2.05;;;11.30;99.90;;;;;;4885718;29;20037;-84
2023/01/07 11:03:22;;;;;;;4.53;2.47;;;11.30;99.90;;;;;;4917705;29;20477;-83
2023/01/07 11:05:56;;;;;;;2.20;1.80;;;11.30;99.90;;;;;;4905271;29;20041;-84
2023/01/07 11:08:31;;;;;;;3.90;1.98;;;11.30;99.90;;;;;;4916212;29;20051;-83
2023/01/07 11:10:58;;;;;;;3.00;1.80;;;11.20;99.90;;;;;;4896902;29;20039;-84
2023/01/07 11:13:29;;;;;;;;;;;11.20;99.90;;;;;;4888879;29;20040;-84
2023/01/07 11:15:58;;;;;;;3.20;1.88;;;11.20;99.90;;;;;;4910929;29;19930;-83
2023/01/07 11:18:31;;;;;;;2.42;1.67;;;11.30;99.90;;;;;;4899057;29;20135;-83
2023/01/07 11:20:58;;;;;;;3.63;1.77;;;11.20;99.90;;;;;;4905560;29;20063;-84
2023/01/07 11:23:34;;;;;;;2.53;1.63;;;11.20;99.90;;;;;;4899116;29;20501;-84
2023/01/07 11:26:14;;;;;;;2.27;1.40;;;11.30;99.90;;;;;;4911083;29;20043;-84
2023/01/07 11:28:59;;;;;;;2.90;1.50;;;11.30;99.90;;;;;;4903020;29;20048;-84
2023/01/07 11:31:52;;;;;;;2.08;1.38;;;11.30;99.90;;;;;;4903946;29;20040;-84
2023/01/07 11:34:36;;;;;;;2.30;1.27;;;11.40;99.90;;;;;;4892108;29;20560;-83
2023/01/07 11:37:03;;;;;;;2.72;1.27;;;11.50;99.90;;;;;;4894375;29;20591;-84
2023/01/07 11:39:33;;;;;;;3.75;1.25;;;11.50;99.90;;;;;;4889085;29;20097;-83
2023/01/07 11:42:37;;;;;;;2.67;1.30;;;11.50;99.90;;;;;;4906669;29;20179;-83
2023/01/07 11:45:12;;;;;;;3.00;1.40;;;11.50;99.90;;;;;;4900606;29;20686;-82
2023/01/07 11:47:56;;;;;;;1.88;1.42;;;11.50;99.90;;;;;;4908431;29;20131;-83
2023/01/07 11:50:34;;;;;;;2.15;1.30;;;11.50;99.90;;;;;;4911538;29;20051;-83
2023/01/07 11:53:03;;;;;;;2.25;1.40;;;11.60;99.90;;;;;;4904501;29;20062;-83
2023/01/07 11:55:29;;;;;;;3.15;1.58;;;11.80;99.90;;;;;;4882966;29;20457;-83
2023/01/07 11:57:56;;;;;;;2.10;1.40;;;12.00;99.90;;;;;;4880651;29;20040;-84
2023/01/07 12:00:23;;;;;;;3.03;1.38;;;12.20;99.90;;;;;;4905534;29;20060;-84
2023/01/07 12:03:10;;;;;;;2.67;1.45;;;12.20;99.90;;;;;;4902587;29;20044;-84
2023/01/07 12:05:38;;;;;;;1.65;1.10;;;12.00;99.90;;;;;;4903136;29;20044;-85
2023/01/07 12:08:05;;;;;;;3.30;1.30;;;12.00;99.90;;;;;;4901489;29;20123;-84
2023/01/07 12:10:37;;;;;;;1.92;1.20;;;11.90;99.90;;;;;;4884576;29;20040;-85
2023/01/07 12:13:20;;;;;;;1.83;1.02;;;11.90;99.90;;;;;;4905249;29;20460;-84
2023/01/07 12:16:00;;;;;;;1.80;1.27;;;11.80;99.90;;;;;;4910328;29;20040;-84
2023/01/07 12:18:35;;;;;;;2.33;1.30;;;11.70;99.90;;;;;;4909109;29;20044;-84
2023/01/07 12:21:19;;;;;;;4.53;1.67;;;11.70;99.90;;;;;;4898029;29;20056;-84
2023/01/07 12:24:23;;;;;;;1.77;1.20;;;11.70;99.90;;;;;;4907038;29;20068;-84
2023/01/07 12:26:53;;;;;;;1.95;1.13;;;11.60;99.90;;;;;;4855240;29;20045;-85
2023/01/07 12:29:35;;;;;;;2.65;1.45;;;11.70;99.90;;;;;;4906205;29;20044;-85
2023/01/07 12:32:05;;;;;;;2.90;1.63;;;12.00;99.90;;;;;;4902347;29;20110;-84
2023/01/07 12:35:00;;;;;;;4.45;1.20;;;12.30;99.90;;;;;;4890749;29;20095;-85
2023/01/07 12:37:36;;;;;;;2.85;1.58;;;12.70;99.90;;;;;;4910826;29;20040;-84
2023/01/07 12:40:21;;;;;;;1.55;1.10;;;13.00;99.90;;;;;;4898275;29;20080;-85
2023/01/07 12:42:56;;;;;;;3.05;1.30;;;13.20;99.90;;;;;;4898797;29;20047;-85
2023/01/07 12:45:30;;;;;;;2.58;1.05;;;13.30;99.90;;;;;;4904431;29;20120;-85
2023/01/07 12:48:06;;;;;;;2.75;1.10;;;13.50;99.90;;;;;;4884368;29;20382;-85
2023/01/07 12:50:45;;;;;;;3.67;1.23;;;13.50;99.90;;;;;;4882985;29;20131;-84
2023/01/07 12:53:16;;;;;;;1.85;1.23;;;13.40;99.90;;;;;;4889054;29;20076;-84
2023/01/07 12:55:48;;;;;;;1.42;1.08;;;13.40;99.90;;;;;;4887282;29;20051;-85
2023/01/07 12:58:27;;;;;;;1.70;1.00;;;13.20;99.90;;;;;;4908502;29;20172;-84